sensor_id;sensor_type;location;lat;lon;timestamp;temperature;humidity
50067;DHT22;35952;52.524;13.340;2023-03-19T00:01:05;10.30;99.90
50067;DHT22;35952;52.524;13.340;2023-03-19T00:03:31;10.30;99.90
50067;DHT22;35952;52.524;13.340;2023-03-19T00:05:57;10.30;99.90
50067;DHT22;35952;52.524;13.340;2023-03-19T00:08:23;10.30;99.90
50067;DHT22;35952;52.524;13.340;2023-03-19T00:10:48;10.30;99.90
50067;DHT22;35952;52.524;13.340;2023-03-19T00:13:17;10.30;99.90
50067;DHT22;35952;52.524;13.340;2023-03-19T00:15:43;10.30;99.90
50067;DHT22;35952;52.524;13.340;2023-03-19T00:18:08;10.20;99.90
50067;DHT22;35952;52.524;13.340;2023-03-19T00:20:34;10.30;99.90
50067;DHT22;35952;52.524;13.340;2023-03-19T00:23:00;10.30;99.90
50067;DHT22;35952;52.524;13.340;2023-03-19T00:25:26;10.30;99.90
50067;DHT22;35952;52.524;13.340;2023-03-19T00:27:51;10.20;99.90
50067;DHT22;35952;52.524;13.340;2023-03-19T00:30:19;10.20;99.90
50067;DHT22;35952;52.524;13.340;2023-03-19T00:32:45;10.30;99.90
50067;DHT22;35952;52.524;13.340;2023-03-19T00:35:10;10.20;99.90
50067;DHT22;35952;52.524;13.340;2023-03-19T00:37:36;10.10;99.90
50067;DHT22;35952;52.524;13.340;2023-03-19T00:40:05;10.00;99.90
50067;DHT22;35952;52.524;13.340;2023-03-19T00:42:39;9.90;99.90
50067;DHT22;35952;52.524;13.340;2023-03-19T00:45:07;9.90;99.90
50067;DHT22;35952;52.524;13.340;2023-03-19T00:47:33;9.80;99.90
50067;DHT22;35952;52.524;13.340;2023-03-19T00:49:58;9.80;99.90
50067;DHT22;35952;52.524;13.340;2023-03-19T00:52:25;9.80;99.90
50067;DHT22;35952;52.524;13.340;2023-03-19T00:54:50;9.80;99.90
50067;DHT22;35952;52.524;13.340;2023-03-19T00:57:16;9.80;99.90
50067;DHT22;35952;52.524;13.340;2023-03-19T00:59:42;9.70;99.90
50067;DHT22;35952;52.524;13.340;2023-03-19T01:02:07;9.70;99.90
50067;DHT22;35952;52.524;13.340;2023-03-19T01:04:33;9.60;99.90
50067;DHT22;35952;52.524;13.340;2023-03-19T01:06:59;9.60;99.90
50067;DHT22;35952;52.524;13.340;2023-03-19T01:09:25;9.60;99.90
50067;DHT22;35952;52.524;13.340;2023-03-19T01:11:51;9.60;99.90
50067;DHT22;35952;52.524;13.340;2023-03-19T01:14:16;9.60;99.90
50067;DHT22;35952;52.524;13.340;2023-03-19T01:16:42;9.60;99.90
50067;DHT22;35952;52.524;13.340;2023-03-19T01:19:07;9.60;99.90
50067;DHT22;35952;52.524;13.340;2023-03-19T01:21:33;9.60;99.90
50067;DHT22;35952;52.524;13.340;2023-03-19T01:24:00;9.50;99.90
50067;DHT22;35952;52.524;13.340;2023-03-19T01:26:26;9.50;99.90
50067;DHT22;35952;52.524;13.340;2023-03-19T01:28:52;9.40;99.90
50067;DHT22;35952;52.524;13.340;2023-03-19T01:31:18;9.40;99.90
50067;DHT22;35952;52.524;13.340;2023-03-19T01:33:43;9.40;99.90
50067;DHT22;35952;52.524;13.340;2023-03-19T01:36:09;9.40;99.90
50067;DHT22;35952;52.524;13.340;2023-03-19T01:38:35;9.40;99.90
50067;DHT22;35952;52.524;13.340;2023-03-19T01:41:01;9.40;99.90
50067;DHT22;35952;52.524;13.340;2023-03-19T01:43:28;9.40;99.90
50067;DHT22;35952;52.524;13.340;2023-03-19T01:46:12;9.40;99.90
50067;DHT22;35952;52.524;13.340;2023-03-19T01:48:45;9.30;99.90
50067;DHT22;35952;52.524;13.340;2023-03-19T01:51:15;9.30;99.90
50067;DHT22;35952;52.524;13.340;2023-03-19T01:53:46;9.30;99.90
50067;DHT22;35952;52.524;13.340;2023-03-19T01:56:19;9.30;99.90
50067;DHT22;35952;52.524;13.340;2023-03-19T01:58:47;9.30;99.90
50067;DHT22;35952;52.524;13.340;2023-03-19T02:01:15;9.30;99.90
50067;DHT22;35952;52.524;13.340;2023-03-19T02:03:40;9.30;99.90
50067;DHT22;35952;52.524;13.340;2023-03-19T02:06:07;9.40;99.90
50067;DHT22;35952;52.524;13.340;2023-03-19T02:08:36;9.40;99.90
50067;DHT22;35952;52.524;13.340;2023-03-19T02:11:03;9.40;99.90
50067;DHT22;35952;52.524;13.340;2023-03-19T02:13:30;9.40;99.90
50067;DHT22;35952;52.524;13.340;2023-03-19T02:15:55;9.40;99.90
50067;DHT22;35952;52.524;13.340;2023-03-19T02:18:23;9.40;99.90
50067;DHT22;35952;52.524;13.340;2023-03-19T02:26:18;9.30;99.90
50067;DHT22;35952;52.524;13.340;2023-03-19T02:28:45;9.30;99.90
50067;DHT22;35952;52.524;13.340;2023-03-19T02:31:12;9.40;99.90
50067;DHT22;35952;52.524;13.340;2023-03-19T02:33:38;9.40;99.90
50067;DHT22;35952;52.524;13.340;2023-03-19T02:36:07;9.30;99.90
50067;DHT22;35952;52.524;13.340;2023-03-19T02:38:33;9.20;99.90
50067;DHT22;35952;52.524;13.340;2023-03-19T02:41:02;9.20;99.90
50067;DHT22;35952;52.524;13.340;2023-03-19T02:43:30;9.30;99.90
50067;DHT22;35952;52.524;13.340;2023-03-19T02:45:57;9.30;99.90
50067;DHT22;35952;52.524;13.340;2023-03-19T02:48:23;9.30;99.90
50067;DHT22;35952;52.524;13.340;2023-03-19T02:50:49;9.30;99.90
50067;DHT22;35952;52.524;13.340;2023-03-19T02:53:15;9.40;99.90
50067;DHT22;35952;52.524;13.340;2023-03-19T02:55:41;9.40;99.90
50067;DHT22;35952;52.524;13.340;2023-03-19T02:58:06;9.40;99.90
50067;DHT22;35952;52.524;13.340;2023-03-19T03:00:32;9.50;99.90
50067;DHT22;35952;52.524;13.340;2023-03-19T03:02:58;9.50;99.90
50067;DHT22;35952;52.524;13.340;2023-03-19T03:05:24;9.40;99.90
50067;DHT22;35952;52.524;13.340;2023-03-19T03:07:50;9.30;99.90
50067;DHT22;35952;52.524;13.340;2023-03-19T03:10:15;9.40;99.90
50067;DHT22;35952;52.524;13.340;2023-03-19T03:12:41;9.40;99.90
50067;DHT22;35952;52.524;13.340;2023-03-19T03:15:07;9.40;99.90
50067;DHT22;35952;52.524;13.340;2023-03-19T03:17:36;9.50;99.90
50067;DHT22;35952;52.524;13.340;2023-03-19T03:20:02;9.50;99.90
50067;DHT22;35952;52.524;13.340;2023-03-19T03:22:28;9.40;99.90
50067;DHT22;35952;52.524;13.340;2023-03-19T03:24:54;9.40;99.90
50067;DHT22;35952;52.524;13.340;2023-03-19T03:27:20;9.50;99.90
50067;DHT22;35952;52.524;13.340;2023-03-19T03:29:46;9.50;99.90
50067;DHT22;35952;52.524;13.340;2023-03-19T03:32:12;9.30;99.90
50067;DHT22;35952;52.524;13.340;2023-03-19T03:34:37;9.30;99.90
50067;DHT22;35952;52.524;13.340;2023-03-19T03:37:03;9.60;99.90
50067;DHT22;35952;52.524;13.340;2023-03-19T03:39:29;9.90;99.90
50067;DHT22;35952;52.524;13.340;2023-03-19T03:41:55;9.90;99.90
50067;DHT22;35952;52.524;13.340;2023-03-19T03:44:20;9.70;99.90
50067;DHT22;35952;52.524;13.340;2023-03-19T03:46:46;9.60;99.90
50067;DHT22;35952;52.524;13.340;2023-03-19T03:49:12;9.70;99.90
50067;DHT22;35952;52.524;13.340;2023-03-19T03:51:37;9.60;99.90
50067;DHT22;35952;52.524;13.340;2023-03-19T03:54:03;9.50;99.90
50067;DHT22;35952;52.524;13.340;2023-03-19T03:56:28;9.40;99.90
50067;DHT22;35952;52.524;13.340;2023-03-19T03:58:54;9.40;99.90
50067;DHT22;35952;52.524;13.340;2023-03-19T04:01:20;9.40;99.90
50067;DHT22;35952;52.524;13.340;2023-03-19T04:03:45;9.30;99.90
50067;DHT22;35952;52.524;13.340;2023-03-19T04:06:16;9.30;99.90
50067;DHT22;35952;52.524;13.340;2023-03-19T04:08:43;9.30;99.90
50067;DHT22;35952;52.524;13.340;2023-03-19T04:11:09;9.20;99.90
50067;DHT22;35952;52.524;13.340;2023-03-19T04:13:35;9.30;99.90
50067;DHT22;35952;52.524;13.340;2023-03-19T04:16:05;9.30;99.90
50067;DHT22;35952;52.524;13.340;2023-03-19T04:18:32;9.20;99.90
50067;DHT22;35952;52.524;13.340;2023-03-19T04:20:58;9.30;99.90
50067;DHT22;35952;52.524;13.340;2023-03-19T04:23:24;9.30;99.90
50067;DHT22;35952;52.524;13.340;2023-03-19T04:25:50;9.30;99.90
50067;DHT22;35952;52.524;13.340;2023-03-19T04:28:16;9.20;99.90
50067;DHT22;35952;52.524;13.340;2023-03-19T04:30:42;9.20;99.90
50067;DHT22;35952;52.524;13.340;2023-03-19T04:33:10;9.30;99.90
50067;DHT22;35952;52.524;13.340;2023-03-19T04:35:36;9.30;99.90
50067;DHT22;35952;52.524;13.340;2023-03-19T04:38:02;9.40;99.90
50067;DHT22;35952;52.524;13.340;2023-03-19T04:40:28;9.40;99.90
50067;DHT22;35952;52.524;13.340;2023-03-19T04:42:54;9.50;99.90
50067;DHT22;35952;52.524;13.340;2023-03-19T04:45:19;9.60;99.90
50067;DHT22;35952;52.524;13.340;2023-03-19T04:47:45;9.80;99.90
50067;DHT22;35952;52.524;13.340;2023-03-19T04:50:11;9.90;99.90
50067;DHT22;35952;52.524;13.340;2023-03-19T04:52:37;10.00;99.90
50067;DHT22;35952;52.524;13.340;2023-03-19T04:55:05;10.00;99.90
50067;DHT22;35952;52.524;13.340;2023-03-19T04:57:31;10.00;99.90
50067;DHT22;35952;52.524;13.340;2023-03-19T04:59:57;10.00;99.90
50067;DHT22;35952;52.524;13.340;2023-03-19T05:02:22;10.10;99.90
50067;DHT22;35952;52.524;13.340;2023-03-19T05:04:48;10.10;99.90
50067;DHT22;35952;52.524;13.340;2023-03-19T05:07:13;10.10;99.90
50067;DHT22;35952;52.524;13.340;2023-03-19T05:09:39;9.90;99.90
50067;DHT22;35952;52.524;13.340;2023-03-19T05:12:05;9.80;99.90
50067;DHT22;35952;52.524;13.340;2023-03-19T05:14:31;9.80;99.90
50067;DHT22;35952;52.524;13.340;2023-03-19T05:16:56;9.80;99.90
50067;DHT22;35952;52.524;13.340;2023-03-19T05:19:22;9.50;99.90
50067;DHT22;35952;52.524;13.340;2023-03-19T05:21:47;9.30;99.90
50067;DHT22;35952;52.524;13.340;2023-03-19T05:24:13;9.20;99.90
50067;DHT22;35952;52.524;13.340;2023-03-19T05:26:39;9.00;99.90
50067;DHT22;35952;52.524;13.340;2023-03-19T05:29:04;9.10;99.90
50067;DHT22;35952;52.524;13.340;2023-03-19T05:31:30;9.20;99.90
50067;DHT22;35952;52.524;13.340;2023-03-19T05:33:56;9.00;99.90
50067;DHT22;35952;52.524;13.340;2023-03-19T05:36:22;9.00;99.90
50067;DHT22;35952;52.524;13.340;2023-03-19T05:38:48;9.10;99.90
50067;DHT22;35952;52.524;13.340;2023-03-19T05:41:14;9.40;99.90
50067;DHT22;35952;52.524;13.340;2023-03-19T05:43:40;9.50;99.90
50067;DHT22;35952;52.524;13.340;2023-03-19T05:46:05;9.40;99.90
50067;DHT22;35952;52.524;13.340;2023-03-19T05:48:32;9.40;99.90
50067;DHT22;35952;52.524;13.340;2023-03-19T05:50:57;9.30;99.90
50067;DHT22;35952;52.524;13.340;2023-03-19T05:53:23;9.40;99.90
50067;DHT22;35952;52.524;13.340;2023-03-19T05:55:49;9.20;99.90
50067;DHT22;35952;52.524;13.340;2023-03-19T05:58:15;9.40;99.90
50067;DHT22;35952;52.524;13.340;2023-03-19T06:00:41;9.60;99.90
50067;DHT22;35952;52.524;13.340;2023-03-19T06:03:07;9.70;99.90
50067;DHT22;35952;52.524;13.340;2023-03-19T06:05:33;9.70;99.90
50067;DHT22;35952;52.524;13.340;2023-03-19T06:08:01;9.70;99.90
50067;DHT22;35952;52.524;13.340;2023-03-19T06:10:27;9.70;99.90
50067;DHT22;35952;52.524;13.340;2023-03-19T06:12:52;9.80;99.90
50067;DHT22;35952;52.524;13.340;2023-03-19T06:15:18;9.90;99.90
50067;DHT22;35952;52.524;13.340;2023-03-19T06:17:43;10.10;99.90
50067;DHT22;35952;52.524;13.340;2023-03-19T06:20:10;10.10;99.90
50067;DHT22;35952;52.524;13.340;2023-03-19T06:22:36;10.20;99.90
50067;DHT22;35952;52.524;13.340;2023-03-19T06:25:02;10.20;99.90
50067;DHT22;35952;52.524;13.340;2023-03-19T06:27:27;10.20;99.90
50067;DHT22;35952;52.524;13.340;2023-03-19T06:29:53;10.40;99.90
50067;DHT22;35952;52.524;13.340;2023-03-19T06:32:18;10.30;99.90
50067;DHT22;35952;52.524;13.340;2023-03-19T06:34:44;10.40;99.90
50067;DHT22;35952;52.524;13.340;2023-03-19T06:37:13;10.50;99.90
50067;DHT22;35952;52.524;13.340;2023-03-19T06:39:38;10.60;99.90
50067;DHT22;35952;52.524;13.340;2023-03-19T06:42:04;10.80;99.90
50067;DHT22;35952;52.524;13.340;2023-03-19T06:44:30;10.90;99.90
50067;DHT22;35952;52.524;13.340;2023-03-19T06:46:55;11.40;99.90
50067;DHT22;35952;52.524;13.340;2023-03-19T06:49:21;11.70;99.90
50067;DHT22;35952;52.524;13.340;2023-03-19T06:51:47;11.60;99.90
50067;DHT22;35952;52.524;13.340;2023-03-19T06:54:13;11.60;99.90
50067;DHT22;35952;52.524;13.340;2023-03-19T06:56:38;11.30;99.90
50067;DHT22;35952;52.524;13.340;2023-03-19T06:59:04;11.10;99.90
50067;DHT22;35952;52.524;13.340;2023-03-19T07:01:29;11.00;99.90
50067;DHT22;35952;52.524;13.340;2023-03-19T07:03:55;11.20;99.90
50067;DHT22;35952;52.524;13.340;2023-03-19T07:06:21;11.20;99.90
50067;DHT22;35952;52.524;13.340;2023-03-19T07:08:47;11.00;99.90
50067;DHT22;35952;52.524;13.340;2023-03-19T07:11:13;10.70;99.90
50067;DHT22;35952;52.524;13.340;2023-03-19T07:13:38;10.40;99.90
50067;DHT22;35952;52.524;13.340;2023-03-19T07:16:04;10.30;99.90
50067;DHT22;35952;52.524;13.340;2023-03-19T07:18:30;10.10;99.90
50067;DHT22;35952;52.524;13.340;2023-03-19T07:20:56;10.20;99.90
50067;DHT22;35952;52.524;13.340;2023-03-19T07:23:21;10.20;99.90
50067;DHT22;35952;52.524;13.340;2023-03-19T07:25:47;9.90;99.90
50067;DHT22;35952;52.524;13.340;2023-03-19T07:28:13;9.80;99.90
50067;DHT22;35952;52.524;13.340;2023-03-19T07:30:38;9.70;99.90
50067;DHT22;35952;52.524;13.340;2023-03-19T07:33:05;9.60;99.90
50067;DHT22;35952;52.524;13.340;2023-03-19T07:35:32;9.60;99.90
50067;DHT22;35952;52.524;13.340;2023-03-19T07:37:57;9.40;99.90
50067;DHT22;35952;52.524;13.340;2023-03-19T07:40:24;9.20;99.90
50067;DHT22;35952;52.524;13.340;2023-03-19T07:42:49;9.10;99.90
50067;DHT22;35952;52.524;13.340;2023-03-19T07:45:16;9.00;99.90
50067;DHT22;35952;52.524;13.340;2023-03-19T07:47:41;9.00;99.90
50067;DHT22;35952;52.524;13.340;2023-03-19T07:50:07;8.80;99.90
50067;DHT22;35952;52.524;13.340;2023-03-19T07:52:33;8.80;99.90
50067;DHT22;35952;52.524;13.340;2023-03-19T07:54:59;8.70;99.90
50067;DHT22;35952;52.524;13.340;2023-03-19T07:57:25;9.00;99.90
50067;DHT22;35952;52.524;13.340;2023-03-19T07:59:51;8.90;99.90
50067;DHT22;35952;52.524;13.340;2023-03-19T08:02:17;8.80;99.90
50067;DHT22;35952;52.524;13.340;2023-03-19T08:04:42;8.70;99.90
50067;DHT22;35952;52.524;13.340;2023-03-19T08:07:09;8.60;99.90
50067;DHT22;35952;52.524;13.340;2023-03-19T08:09:37;8.70;99.90
50067;DHT22;35952;52.524;13.340;2023-03-19T08:12:04;8.90;99.90
50067;DHT22;35952;52.524;13.340;2023-03-19T08:14:31;9.00;99.90
50067;DHT22;35952;52.524;13.340;2023-03-19T08:16:57;8.90;99.90
50067;DHT22;35952;52.524;13.340;2023-03-19T08:19:22;9.20;99.90
50067;DHT22;35952;52.524;13.340;2023-03-19T08:21:48;9.40;99.90
50067;DHT22;35952;52.524;13.340;2023-03-19T08:24:13;9.50;99.90
50067;DHT22;35952;52.524;13.340;2023-03-19T08:26:39;9.60;99.90
50067;DHT22;35952;52.524;13.340;2023-03-19T08:29:04;9.60;99.90
50067;DHT22;35952;52.524;13.340;2023-03-19T08:31:31;9.60;99.90
50067;DHT22;35952;52.524;13.340;2023-03-19T08:33:57;9.60;99.90
50067;DHT22;35952;52.524;13.340;2023-03-19T08:36:24;9.50;99.90
50067;DHT22;35952;52.524;13.340;2023-03-19T08:38:51;9.40;99.90
50067;DHT22;35952;52.524;13.340;2023-03-19T08:41:20;9.40;99.90
50067;DHT22;35952;52.524;13.340;2023-03-19T08:43:45;9.10;99.90
50067;DHT22;35952;52.524;13.340;2023-03-19T08:46:11;8.80;99.90
50067;DHT22;35952;52.524;13.340;2023-03-19T08:48:37;8.80;99.90
50067;DHT22;35952;52.524;13.340;2023-03-19T08:51:03;8.80;99.90
50067;DHT22;35952;52.524;13.340;2023-03-19T08:53:29;8.80;99.90
50067;DHT22;35952;52.524;13.340;2023-03-19T08:55:57;8.70;99.90
50067;DHT22;35952;52.524;13.340;2023-03-19T08:58:23;8.80;99.90
50067;DHT22;35952;52.524;13.340;2023-03-19T09:00:49;8.70;99.90
50067;DHT22;35952;52.524;13.340;2023-03-19T09:03:16;8.70;99.90
50067;DHT22;35952;52.524;13.340;2023-03-19T09:05:42;8.80;99.90
50067;DHT22;35952;52.524;13.340;2023-03-19T09:08:08;8.90;99.90
50067;DHT22;35952;52.524;13.340;2023-03-19T09:10:34;9.00;99.90
50067;DHT22;35952;52.524;13.340;2023-03-19T09:13:00;9.00;99.90
50067;DHT22;35952;52.524;13.340;2023-03-19T09:15:26;9.10;99.90
50067;DHT22;35952;52.524;13.340;2023-03-19T09:17:51;9.10;99.90
50067;DHT22;35952;52.524;13.340;2023-03-19T09:20:17;9.20;99.90
50067;DHT22;35952;52.524;13.340;2023-03-19T09:22:43;9.40;99.90
50067;DHT22;35952;52.524;13.340;2023-03-19T09:25:08;9.50;99.90
50067;DHT22;35952;52.524;13.340;2023-03-19T09:27:34;9.60;99.90
50067;DHT22;35952;52.524;13.340;2023-03-19T09:30:00;9.50;99.90
50067;DHT22;35952;52.524;13.340;2023-03-19T09:32:25;9.50;99.90
50067;DHT22;35952;52.524;13.340;2023-03-19T09:34:51;9.50;99.90
50067;DHT22;35952;52.524;13.340;2023-03-19T09:37:16;9.50;99.90
50067;DHT22;35952;52.524;13.340;2023-03-19T09:39:42;9.60;99.90
50067;DHT22;35952;52.524;13.340;2023-03-19T09:42:12;9.70;99.90
50067;DHT22;35952;52.524;13.340;2023-03-19T09:44:40;9.80;99.90
50067;DHT22;35952;52.524;13.340;2023-03-19T09:47:27;10.00;99.90
50067;DHT22;35952;52.524;13.340;2023-03-19T09:49:59;10.40;99.90
50067;DHT22;35952;52.524;13.340;2023-03-19T09:52:46;11.10;99.90
50067;DHT22;35952;52.524;13.340;2023-03-19T09:57:49;11.60;99.90
50067;DHT22;35952;52.524;13.340;2023-03-19T10:09:12;11.90;99.90
50067;DHT22;35952;52.524;13.340;2023-03-19T10:17:26;11.80;99.90
50067;DHT22;35952;52.524;13.340;2023-03-19T10:20:01;11.90;99.90
50067;DHT22;35952;52.524;13.340;2023-03-19T10:22:50;11.80;99.90
50067;DHT22;35952;52.524;13.340;2023-03-19T10:25:25;12.00;99.90
50067;DHT22;35952;52.524;13.340;2023-03-19T10:27:58;11.80;99.90
50067;DHT22;35952;52.524;13.340;2023-03-19T10:30:25;11.80;99.90
50067;DHT22;35952;52.524;13.340;2023-03-19T10:33:07;12.20;99.90
50067;DHT22;35952;52.524;13.340;2023-03-19T10:35:42;12.20;99.90
50067;DHT22;35952;52.524;13.340;2023-03-19T10:38:22;12.50;99.90
50067;DHT22;35952;52.524;13.340;2023-03-19T10:43:29;12.60;99.90
50067;DHT22;35952;52.524;13.340;2023-03-19T10:45:56;12.50;99.90
50067;DHT22;35952;52.524;13.340;2023-03-19T10:48:24;12.60;99.90
50067;DHT22;35952;52.524;13.340;2023-03-19T10:50:59;12.60;99.90
50067;DHT22;35952;52.524;13.340;2023-03-19T10:53:33;12.40;99.90
50067;DHT22;35952;52.524;13.340;2023-03-19T10:56:02;12.80;99.90
50067;DHT22;35952;52.524;13.340;2023-03-19T10:58:30;13.20;99.90
50067;DHT22;35952;52.524;13.340;2023-03-19T11:01:03;13.40;99.90
50067;DHT22;35952;52.524;13.340;2023-03-19T11:03:36;12.20;99.90
50067;DHT22;35952;52.524;13.340;2023-03-19T11:06:24;12.00;99.90
50067;DHT22;35952;52.524;13.340;2023-03-19T11:08:58;12.00;99.90
50067;DHT22;35952;52.524;13.340;2023-03-19T11:11:44;11.70;99.90
50067;DHT22;35952;52.524;13.340;2023-03-19T11:14:23;12.00;99.90
50067;DHT22;35952;52.524;13.340;2023-03-19T11:19:31;12.20;99.90
50067;DHT22;35952;52.524;13.340;2023-03-19T11:24:31;12.10;99.90
50067;DHT22;35952;52.524;13.340;2023-03-19T11:26:57;12.30;99.90
50067;DHT22;35952;52.524;13.340;2023-03-19T11:29:26;12.30;99.90
50067;DHT22;35952;52.524;13.340;2023-03-19T11:32:02;12.30;99.90
50067;DHT22;35952;52.524;13.340;2023-03-19T11:34:39;12.50;99.90
50067;DHT22;35952;52.524;13.340;2023-03-19T11:48:02;13.80;99.90
50067;DHT22;35952;52.524;13.340;2023-03-19T11:50:49;13.80;99.90
50067;DHT22;35952;52.524;13.340;2023-03-19T11:53:37;13.60;99.90
50067;DHT22;35952;52.524;13.340;2023-03-19T11:56:26;14.10;99.90
50067;DHT22;35952;52.524;13.340;2023-03-19T12:07:26;14.10;99.90
50067;DHT22;35952;52.524;13.340;2023-03-19T12:12:48;14.00;99.90
50067;DHT22;35952;52.524;13.340;2023-03-19T12:15:33;14.20;99.90
50067;DHT22;35952;52.524;13.340;2023-03-19T12:20:55;14.50;99.90
50067;DHT22;35952;52.524;13.340;2023-03-19T12:23:35;14.60;99.90
50067;DHT22;35952;52.524;13.340;2023-03-19T12:26:07;14.70;99.90
50067;DHT22;35952;52.524;13.340;2023-03-19T12:28:46;14.70;99.90
50067;DHT22;35952;52.524;13.340;2023-03-19T12:31:40;14.90;99.90
50067;DHT22;35952;52.524;13.340;2023-03-19T12:34:38;15.10;99.90
50067;DHT22;35952;52.524;13.340;2023-03-19T12:42:24;15.20;99.90
50067;DHT22;35952;52.524;13.340;2023-03-19T12:44:54;15.20;99.90
50067;DHT22;35952;52.524;13.340;2023-03-19T12:47:28;15.40;99.90
50067;DHT22;35952;52.524;13.340;2023-03-19T12:50:10;15.60;99.90
50067;DHT22;35952;52.524;13.340;2023-03-19T12:52:43;15.90;99.90
50067;DHT22;35952;52.524;13.340;2023-03-19T12:57:43;15.60;99.90
50067;DHT22;35952;52.524;13.340;2023-03-19T13:06:05;16.20;99.90
50067;DHT22;35952;52.524;13.340;2023-03-19T13:08:47;16.70;99.90
50067;DHT22;35952;52.524;13.340;2023-03-19T13:14:20;16.70;99.90
50067;DHT22;35952;52.524;13.340;2023-03-19T13:17:13;16.90;99.90
50067;DHT22;35952;52.524;13.340;2023-03-19T13:19:46;17.10;99.90
50067;DHT22;35952;52.524;13.340;2023-03-19T13:22:16;17.10;99.90
50067;DHT22;35952;52.524;13.340;2023-03-19T13:24:46;16.70;99.90
50067;DHT22;35952;52.524;13.340;2023-03-19T13:27:18;16.90;99.90
50067;DHT22;35952;52.524;13.340;2023-03-19T13:32:40;17.00;99.90
50067;DHT22;35952;52.524;13.340;2023-03-19T13:38:16;18.40;99.90
50067;DHT22;35952;52.524;13.340;2023-03-19T13:40:49;18.60;99.90
50067;DHT22;35952;52.524;13.340;2023-03-19T13:54:14;18.20;99.90
50067;DHT22;35952;52.524;13.340;2023-03-19T13:59:33;17.20;99.90
50067;DHT22;35952;52.524;13.340;2023-03-19T14:02:02;16.70;99.90
50067;DHT22;35952;52.524;13.340;2023-03-19T14:04:32;16.80;99.90
50067;DHT22;35952;52.524;13.340;2023-03-19T14:07:17;16.70;99.90
50067;DHT22;35952;52.524;13.340;2023-03-19T14:09:49;16.60;99.90
50067;DHT22;35952;52.524;13.340;2023-03-19T14:12:40;17.00;99.90
50067;DHT22;35952;52.524;13.340;2023-03-19T14:17:40;18.20;99.90
50067;DHT22;35952;52.524;13.340;2023-03-19T14:25:18;19.00;99.90
50067;DHT22;35952;52.524;13.340;2023-03-19T14:27:48;19.30;99.90
50067;DHT22;35952;52.524;13.340;2023-03-19T14:30:36;19.50;99.90
50067;DHT22;35952;52.524;13.340;2023-03-19T14:33:06;19.80;99.90
50067;DHT22;35952;52.524;13.340;2023-03-19T14:35:38;20.90;99.90
50067;DHT22;35952;52.524;13.340;2023-03-19T14:38:12;21.90;99.90
50067;DHT22;35952;52.524;13.340;2023-03-19T14:40:50;22.50;99.10
50067;DHT22;35952;52.524;13.340;2023-03-19T14:49:35;22.60;87.70
50067;DHT22;35952;52.524;13.340;2023-03-19T14:52:15;23.20;81.20
50067;DHT22;35952;52.524;13.340;2023-03-19T14:54:54;23.10;71.00
50067;DHT22;35952;52.524;13.340;2023-03-19T14:57:31;22.70;74.20
50067;DHT22;35952;52.524;13.340;2023-03-19T15:00:02;23.40;71.00
50067;DHT22;35952;52.524;13.340;2023-03-19T15:02:50;22.50;72.00
50067;DHT22;35952;52.524;13.340;2023-03-19T15:05:30;22.30;71.60
50067;DHT22;35952;52.524;13.340;2023-03-19T15:08:02;22.00;73.20
50067;DHT22;35952;52.524;13.340;2023-03-19T15:10:34;21.50;76.50
50067;DHT22;35952;52.524;13.340;2023-03-19T15:13:38;20.00;76.80
50067;DHT22;35952;52.524;13.340;2023-03-19T15:16:25;18.70;85.40
50067;DHT22;35952;52.524;13.340;2023-03-19T15:18:52;17.90;93.90
50067;DHT22;35952;52.524;13.340;2023-03-19T15:21:19;17.90;97.30
50067;DHT22;35952;52.524;13.340;2023-03-19T15:23:45;17.30;97.10
50067;DHT22;35952;52.524;13.340;2023-03-19T15:26:11;17.20;99.80
50067;DHT22;35952;52.524;13.340;2023-03-19T15:28:48;17.20;99.90
50067;DHT22;35952;52.524;13.340;2023-03-19T15:31:15;17.40;99.90
50067;DHT22;35952;52.524;13.340;2023-03-19T15:33:41;17.10;99.90
50067;DHT22;35952;52.524;13.340;2023-03-19T15:41:12;17.00;99.90
50067;DHT22;35952;52.524;13.340;2023-03-19T15:43:38;16.90;99.90
50067;DHT22;35952;52.524;13.340;2023-03-19T15:46:14;17.30;99.90
50067;DHT22;35952;52.524;13.340;2023-03-19T15:48:42;17.50;99.90
50067;DHT22;35952;52.524;13.340;2023-03-19T15:51:10;17.50;99.90
50067;DHT22;35952;52.524;13.340;2023-03-19T15:53:37;17.50;99.90
50067;DHT22;35952;52.524;13.340;2023-03-19T15:56:03;17.10;99.90
50067;DHT22;35952;52.524;13.340;2023-03-19T15:58:35;16.60;99.90
50067;DHT22;35952;52.524;13.340;2023-03-19T16:01:05;16.40;99.90
50067;DHT22;35952;52.524;13.340;2023-03-19T16:03:36;16.50;99.90
50067;DHT22;35952;52.524;13.340;2023-03-19T16:06:13;16.60;99.90
50067;DHT22;35952;52.524;13.340;2023-03-19T16:08:50;16.70;99.90
50067;DHT22;35952;52.524;13.340;2023-03-19T16:11:34;16.90;99.90
50067;DHT22;35952;52.524;13.340;2023-03-19T16:17:16;16.50;99.90
50067;DHT22;35952;52.524;13.340;2023-03-19T16:19:52;16.60;99.90
50067;DHT22;35952;52.524;13.340;2023-03-19T16:22:29;16.50;99.90
50067;DHT22;35952;52.524;13.340;2023-03-19T16:24:56;16.70;99.90
50067;DHT22;35952;52.524;13.340;2023-03-19T16:27:37;16.70;99.90
50067;DHT22;35952;52.524;13.340;2023-03-19T16:30:22;16.50;99.90
50067;DHT22;35952;52.524;13.340;2023-03-19T16:33:04;16.30;99.90
50067;DHT22;35952;52.524;13.340;2023-03-19T16:35:32;16.20;99.90
50067;DHT22;35952;52.524;13.340;2023-03-19T16:40:38;15.80;99.90
50067;DHT22;35952;52.524;13.340;2023-03-19T16:43:07;15.60;99.90
50067;DHT22;35952;52.524;13.340;2023-03-19T16:45:38;15.70;99.90
50067;DHT22;35952;52.524;13.340;2023-03-19T16:48:04;15.70;99.90
50067;DHT22;35952;52.524;13.340;2023-03-19T16:52:55;15.70;99.90
50067;DHT22;35952;52.524;13.340;2023-03-19T16:55:27;15.70;99.90
50067;DHT22;35952;52.524;13.340;2023-03-19T16:58:01;15.70;99.90
50067;DHT22;35952;52.524;13.340;2023-03-19T17:00:28;15.70;99.90
50067;DHT22;35952;52.524;13.340;2023-03-19T17:02:55;15.60;99.90
50067;DHT22;35952;52.524;13.340;2023-03-19T17:05:22;15.40;99.90
50067;DHT22;35952;52.524;13.340;2023-03-19T17:07:47;15.40;99.90
50067;DHT22;35952;52.524;13.340;2023-03-19T17:10:17;15.40;99.90
50067;DHT22;35952;52.524;13.340;2023-03-19T17:12:44;15.50;99.90
50067;DHT22;35952;52.524;13.340;2023-03-19T17:15:35;15.40;99.90
50067;DHT22;35952;52.524;13.340;2023-03-19T17:18:02;15.30;99.90
50067;DHT22;35952;52.524;13.340;2023-03-19T17:20:35;15.10;99.90
50067;DHT22;35952;52.524;13.340;2023-03-19T17:23:03;15.20;99.90
50067;DHT22;35952;52.524;13.340;2023-03-19T17:25:33;15.10;99.90
50067;DHT22;35952;52.524;13.340;2023-03-19T17:27:59;14.90;99.90
50067;DHT22;35952;52.524;13.340;2023-03-19T17:30:24;14.80;99.90
50067;DHT22;35952;52.524;13.340;2023-03-19T17:32:50;14.60;99.90